Saint Cloud, MN (56304)

11:03 AM CST on February 10, 2016 (GMT -0600)
4.53 Mi East of Sauk Rapids,MN | | Change Station
CLOSE
Current Station
Personal Weather Station
Location: Sauk Rapids, MN
Elevation: 1036 ft
Nearby Weather Stations

Elev 1036 ft 45.61 °N, 94.07 °W | Updated 6 seconds ago

Overcast
Overcast
5.3 °F
Feels Like -7 °F
N
7.0
Wind Variable Wind from North
Gusts 7.0 mph

Today
High -- | Low -- °F
--% Chance of Precip.
Yesterday
High -- | Low -- °F
Precip. -- in
Pressure 30.22 in
Visibility 10.0 miles
Clouds Overcast 8000 ft
Windchill -7 °F
Dew Point -3 °F
Humidity 69%
Rainfall 0.00 in
Snow Depth Not available.
7:26 AM 5:35 PM
Waxing Crescent, 6% visible
METAR KSTC 101653Z 03005KT 10SM OVC080 M15/M21 A3012 RMK AO2 SLP234 T11501206
Pressure 30.22 in
Visibility 10.0 miles
Clouds Overcast 8000 ft
Windchill -7 °F
Dew Point -3 °F
Humidity 69%
Rainfall 0.00 in
Snow Depth Not available.
7:26 AM 5:35 PM
Waxing Crescent, 6% visible
METAR KSTC 101653Z 03005KT 10SM OVC080 M15/M21 A3012 RMK AO2 SLP234 T11501206

10-Day Weather Forecast

Almanac

Astronomy

Feb. 10, 2016 Rise Set
Actual Time
Civil Twilight
Nautical Twilight
Astronomical Twilight
Moon
Length of Visible Light
Length of Day
Tomorrow will be .
, % of the Moon is Illuminated

Today's Extremes

State Highs State Lows

Community

WunderPhotos

Upload Photos

1,891,892 photos uploaded!

WunderBlog® & News

Nearby

Air Quality

  Air Quality AQ Index Pollutant
Not available.

Snow Depth

Station Depth Elevation

Earthquake Activity

City Distance Mag. Time & Date
Minimum magnitude displayed is 2.5.

Coastal Water Temperatures

Place Temperature

Stations

Nearby Weather Stations

Station Location Temp. Windchill Dew Point Humidity Wind Precip. Elev Updated Type
                   

Watches & Warnings

There are currently no watches in effect.